San Jose del Cabo (SJD/MMSD)

Map

Destinations

Information

Location
San Jose del Cabo, Baja California Sur, Mexico
Local Time
17:22 / 5:22 pm
GMT Time
00:22 / 12:22 am
Gates
Unassigned
No FAA reported delays
METAR MMSD 222342Z 15005KT 12SM SKC 25/14 A2990 RMK SLP114 57007 965
TAF TAF AMD MMSD 221953Z 2220/2318 12015KT P6SM SKC FM230300 34010KT P6SM SKC
  • No charts available